sensor_id;sensor_type;location;lat;lon;timestamp;pressure;altitude;pressure_sealevel;temperature;humidity
44765;BME280;30484;52.382;5.260;2023-06-22T00:01:13;102098.06;;;21.76;100.00
44765;BME280;30484;52.382;5.260;2023-06-22T00:03:42;102106.22;;;21.76;100.00
44765;BME280;30484;52.382;5.260;2023-06-22T00:06:11;102105.59;;;21.72;100.00
44765;BME280;30484;52.382;5.260;2023-06-22T00:08:41;102103.41;;;21.78;100.00
44765;BME280;30484;52.382;5.260;2023-06-22T00:11:14;102106.75;;;21.81;100.00
44765;BME280;30484;52.382;5.260;2023-06-22T00:13:46;102098.56;;;21.81;100.00
44765;BME280;30484;52.382;5.260;2023-06-22T00:16:18;102099.28;;;21.61;100.00
44765;BME280;30484;52.382;5.260;2023-06-22T00:18:47;102091.38;;;21.45;100.00
44765;BME280;30484;52.382;5.260;2023-06-22T00:21:16;102103.22;;;21.57;100.00
44765;BME280;30484;52.382;5.260;2023-06-22T00:23:47;102111.66;;;21.65;100.00
44765;BME280;30484;52.382;5.260;2023-06-22T00:26:17;102102.03;;;21.72;100.00
44765;BME280;30484;52.382;5.260;2023-06-22T00:28:51;102106.66;;;21.59;100.00
44765;BME280;30484;52.382;5.260;2023-06-22T00:31:20;102113.31;;;21.54;100.00
44765;BME280;30484;52.382;5.260;2023-06-22T00:33:50;102115.31;;;21.52;100.00
44765;BME280;30484;52.382;5.260;2023-06-22T00:36:19;102098.50;;;21.59;100.00
44765;BME280;30484;52.382;5.260;2023-06-22T00:38:52;102110.50;;;21.56;100.00
44765;BME280;30484;52.382;5.260;2023-06-22T00:41:22;102115.41;;;21.51;100.00
44765;BME280;30484;52.382;5.260;2023-06-22T00:43:53;102103.63;;;21.50;100.00
44765;BME280;30484;52.382;5.260;2023-06-22T00:46:26;102090.41;;;21.46;100.00
44765;BME280;30484;52.382;5.260;2023-06-22T00:48:57;102086.31;;;21.40;100.00
44765;BME280;30484;52.382;5.260;2023-06-22T00:51:26;102105.28;;;21.29;100.00
44765;BME280;30484;52.382;5.260;2023-06-22T00:53:55;102102.84;;;21.37;100.00
44765;BME280;30484;52.382;5.260;2023-06-22T00:56:24;102091.31;;;21.33;100.00
44765;BME280;30484;52.382;5.260;2023-06-22T00:58:54;102092.69;;;21.28;100.00
44765;BME280;30484;52.382;5.260;2023-06-22T01:01:24;102088.53;;;21.35;100.00
44765;BME280;30484;52.382;5.260;2023-06-22T01:03:53;102086.66;;;21.35;100.00
44765;BME280;30484;52.382;5.260;2023-06-22T01:06:31;102079.72;;;21.31;100.00
44765;BME280;30484;52.382;5.260;2023-06-22T01:09:11;102073.63;;;21.16;100.00
44765;BME280;30484;52.382;5.260;2023-06-22T01:11:47;102087.22;;;21.16;100.00
44765;BME280;30484;52.382;5.260;2023-06-22T01:14:27;102069.44;;;21.24;100.00
44765;BME280;30484;52.382;5.260;2023-06-22T01:16:57;102078.56;;;21.23;100.00
44765;BME280;30484;52.382;5.260;2023-06-22T01:19:37;102081.84;;;21.15;100.00
44765;BME280;30484;52.382;5.260;2023-06-22T01:22:10;102083.38;;;21.19;100.00
44765;BME280;30484;52.382;5.260;2023-06-22T01:24:55;102084.94;;;21.10;100.00
44765;BME280;30484;52.382;5.260;2023-06-22T01:27:36;102086.38;;;21.03;100.00
44765;BME280;30484;52.382;5.260;2023-06-22T01:30:12;102091.41;;;21.20;100.00
44765;BME280;30484;52.382;5.260;2023-06-22T01:32:43;102088.66;;;21.09;100.00
44765;BME280;30484;52.382;5.260;2023-06-22T01:35:13;102095.44;;;21.15;100.00
44765;BME280;30484;52.382;5.260;2023-06-22T01:37:43;102078.16;;;21.16;100.00
44765;BME280;30484;52.382;5.260;2023-06-22T01:40:12;102088.41;;;21.12;100.00
44765;BME280;30484;52.382;5.260;2023-06-22T01:42:42;102083.03;;;20.99;100.00
44765;BME280;30484;52.382;5.260;2023-06-22T01:45:14;102085.00;;;20.97;100.00
44765;BME280;30484;52.382;5.260;2023-06-22T01:47:43;102080.50;;;21.09;100.00
44765;BME280;30484;52.382;5.260;2023-06-22T01:50:12;102095.06;;;21.08;100.00
44765;BME280;30484;52.382;5.260;2023-06-22T01:52:41;102097.19;;;20.92;100.00
44765;BME280;30484;52.382;5.260;2023-06-22T01:55:10;102097.84;;;20.95;100.00
44765;BME280;30484;52.382;5.260;2023-06-22T01:57:39;102102.63;;;20.92;100.00
44765;BME280;30484;52.382;5.260;2023-06-22T02:00:18;102084.56;;;20.91;100.00
44765;BME280;30484;52.382;5.260;2023-06-22T02:02:54;102086.19;;;20.93;100.00
44765;BME280;30484;52.382;5.260;2023-06-22T02:05:26;102077.06;;;20.70;100.00
44765;BME280;30484;52.382;5.260;2023-06-22T02:08:11;102085.22;;;20.94;100.00
44765;BME280;30484;52.382;5.260;2023-06-22T02:10:44;102074.47;;;20.93;100.00
44765;BME280;30484;52.382;5.260;2023-06-22T02:13:15;102084.13;;;20.97;100.00
44765;BME280;30484;52.382;5.260;2023-06-22T02:15:47;102072.91;;;20.77;100.00
44765;BME280;30484;52.382;5.260;2023-06-22T02:18:16;102073.31;;;20.84;100.00
44765;BME280;30484;52.382;5.260;2023-06-22T02:20:45;102074.47;;;20.93;100.00
44765;BME280;30484;52.382;5.260;2023-06-22T02:23:14;102069.50;;;20.86;100.00
44765;BME280;30484;52.382;5.260;2023-06-22T02:25:43;102052.69;;;20.81;100.00
44765;BME280;30484;52.382;5.260;2023-06-22T02:28:12;102047.47;;;20.78;100.00
44765;BME280;30484;52.382;5.260;2023-06-22T02:30:41;102061.19;;;20.77;100.00
44765;BME280;30484;52.382;5.260;2023-06-22T02:33:15;102064.13;;;20.74;100.00
44765;BME280;30484;52.382;5.260;2023-06-22T02:35:44;102066.06;;;20.72;100.00
44765;BME280;30484;52.382;5.260;2023-06-22T02:38:17;102066.06;;;20.72;100.00
44765;BME280;30484;52.382;5.260;2023-06-22T02:40:50;102075.75;;;20.63;100.00
44765;BME280;30484;52.382;5.260;2023-06-22T02:43:20;102065.66;;;20.52;100.00
44765;BME280;30484;52.382;5.260;2023-06-22T02:45:50;102071.28;;;20.62;100.00
44765;BME280;30484;52.382;5.260;2023-06-22T02:48:24;102063.25;;;20.60;100.00
44765;BME280;30484;52.382;5.260;2023-06-22T02:50:54;102067.03;;;20.58;100.00
44765;BME280;30484;52.382;5.260;2023-06-22T02:53:23;102066.84;;;20.61;100.00
44765;BME280;30484;52.382;5.260;2023-06-22T02:55:52;102068.91;;;20.57;100.00
44765;BME280;30484;52.382;5.260;2023-06-22T02:58:23;102065.75;;;20.50;100.00
44765;BME280;30484;52.382;5.260;2023-06-22T03:00:54;102054.06;;;20.50;100.00
44765;BME280;30484;52.382;5.260;2023-06-22T03:03:25;102053.06;;;20.51;100.00
44765;BME280;30484;52.382;5.260;2023-06-22T03:05:54;102059.06;;;20.43;100.00
44765;BME280;30484;52.382;5.260;2023-06-22T03:08:24;102053.41;;;20.46;100.00
44765;BME280;30484;52.382;5.260;2023-06-22T03:10:53;102070.38;;;20.37;100.00
44765;BME280;30484;52.382;5.260;2023-06-22T03:13:27;102062.03;;;20.27;100.00
44765;BME280;30484;52.382;5.260;2023-06-22T03:15:56;102061.78;;;20.30;100.00
44765;BME280;30484;52.382;5.260;2023-06-22T03:18:27;102068.09;;;20.31;100.00
44765;BME280;30484;52.382;5.260;2023-06-22T03:20:57;102061.69;;;20.32;100.00
44765;BME280;30484;52.382;5.260;2023-06-22T03:23:26;102035.94;;;20.38;100.00
44765;BME280;30484;52.382;5.260;2023-06-22T03:25:56;102042.75;;;20.43;100.00
44765;BME280;30484;52.382;5.260;2023-06-22T03:28:25;102035.94;;;20.38;100.00
44765;BME280;30484;52.382;5.260;2023-06-22T03:30:57;102041.94;;;20.30;100.00
44765;BME280;30484;52.382;5.260;2023-06-22T03:33:28;102058.44;;;20.40;100.00
44765;BME280;30484;52.382;5.260;2023-06-22T03:35:57;102074.28;;;20.33;100.00
44765;BME280;30484;52.382;5.260;2023-06-22T03:38:28;102066.03;;;20.34;100.00
44765;BME280;30484;52.382;5.260;2023-06-22T03:43:36;102056.03;;;20.22;100.00
44765;BME280;30484;52.382;5.260;2023-06-22T03:46:04;102047.03;;;20.22;100.00
44765;BME280;30484;52.382;5.260;2023-06-22T03:48:35;102064.19;;;20.22;100.00
44765;BME280;30484;52.382;5.260;2023-06-22T03:51:04;102051.03;;;20.29;100.00
44765;BME280;30484;52.382;5.260;2023-06-22T03:53:32;102043.69;;;20.31;100.00
44765;BME280;30484;52.382;5.260;2023-06-22T03:56:01;102032.91;;;20.29;100.00
44765;BME280;30484;52.382;5.260;2023-06-22T03:58:30;102041.38;;;20.38;100.00
44765;BME280;30484;52.382;5.260;2023-06-22T04:01:00;102039.72;;;20.35;100.00
44765;BME280;30484;52.382;5.260;2023-06-22T04:03:30;102054.19;;;20.35;100.00
44765;BME280;30484;52.382;5.260;2023-06-22T04:06:01;102053.41;;;20.33;100.00
44765;BME280;30484;52.382;5.260;2023-06-22T04:08:30;102054.31;;;20.34;100.00
44765;BME280;30484;52.382;5.260;2023-06-22T04:11:01;102051.25;;;20.39;100.00
44765;BME280;30484;52.382;5.260;2023-06-22T04:13:30;102053.84;;;20.40;100.00
44765;BME280;30484;52.382;5.260;2023-06-22T04:15:59;102056.91;;;20.35;100.00
44765;BME280;30484;52.382;5.260;2023-06-22T04:18:29;102061.66;;;20.45;100.00
44765;BME280;30484;52.382;5.260;2023-06-22T04:20:57;102040.81;;;20.45;100.00
44765;BME280;30484;52.382;5.260;2023-06-22T04:23:27;102036.91;;;20.49;100.00
44765;BME280;30484;52.382;5.260;2023-06-22T04:25:56;102043.41;;;20.47;100.00
44765;BME280;30484;52.382;5.260;2023-06-22T04:28:25;102050.69;;;20.46;100.00
44765;BME280;30484;52.382;5.260;2023-06-22T04:30:56;102040.13;;;20.55;100.00
44765;BME280;30484;52.382;5.260;2023-06-22T04:33:32;102044.78;;;20.65;100.00
44765;BME280;30484;52.382;5.260;2023-06-22T04:36:01;102054.75;;;20.65;100.00
44765;BME280;30484;52.382;5.260;2023-06-22T04:38:36;102053.78;;;20.66;100.00
44765;BME280;30484;52.382;5.260;2023-06-22T04:41:05;102052.59;;;20.70;100.00
44765;BME280;30484;52.382;5.260;2023-06-22T04:43:36;102049.84;;;20.83;100.00
44765;BME280;30484;52.382;5.260;2023-06-22T04:46:09;102066.41;;;20.67;100.00
44765;BME280;30484;52.382;5.260;2023-06-22T04:48:38;102054.59;;;20.92;100.00
44765;BME280;30484;52.382;5.260;2023-06-22T04:51:07;102064.03;;;20.99;100.00
44765;BME280;30484;52.382;5.260;2023-06-22T04:53:37;102057.19;;;20.94;100.00
44765;BME280;30484;52.382;5.260;2023-06-22T04:56:09;102053.28;;;20.98;100.00
44765;BME280;30484;52.382;5.260;2023-06-22T04:58:37;102053.50;;;21.30;100.00
44765;BME280;30484;52.382;5.260;2023-06-22T05:01:05;102054.91;;;21.36;100.00
44765;BME280;30484;52.382;5.260;2023-06-22T05:03:35;102044.94;;;21.48;100.00
44765;BME280;30484;52.382;5.260;2023-06-22T05:06:05;102060.63;;;21.44;100.00
44765;BME280;30484;52.382;5.260;2023-06-22T05:08:33;102064.25;;;21.56;100.00
44765;BME280;30484;52.382;5.260;2023-06-22T05:11:04;102053.28;;;21.69;100.00
44765;BME280;30484;52.382;5.260;2023-06-22T05:13:32;102054.03;;;21.71;100.00
44765;BME280;30484;52.382;5.260;2023-06-22T05:16:01;102062.06;;;21.61;100.00
44765;BME280;30484;52.382;5.260;2023-06-22T05:18:30;102060.38;;;21.94;100.00
44765;BME280;30484;52.382;5.260;2023-06-22T05:20:59;102052.47;;;21.91;100.00
44765;BME280;30484;52.382;5.260;2023-06-22T05:23:28;102062.59;;;22.00;100.00
44765;BME280;30484;52.382;5.260;2023-06-22T05:25:56;102048.41;;;22.08;100.00
44765;BME280;30484;52.382;5.260;2023-06-22T05:28:27;102053.13;;;22.40;100.00
44765;BME280;30484;52.382;5.260;2023-06-22T05:30:55;102044.66;;;22.32;100.00
44765;BME280;30484;52.382;5.260;2023-06-22T05:33:24;102027.88;;;22.38;100.00
44765;BME280;30484;52.382;5.260;2023-06-22T05:35:52;102038.88;;;22.59;100.00
44765;BME280;30484;52.382;5.260;2023-06-22T05:38:21;102035.78;;;22.41;100.00
44765;BME280;30484;52.382;5.260;2023-06-22T05:40:49;102041.44;;;22.72;100.00
44765;BME280;30484;52.382;5.260;2023-06-22T05:43:18;102042.66;;;22.79;100.00
44765;BME280;30484;52.382;5.260;2023-06-22T05:45:48;102051.84;;;22.67;100.00
44765;BME280;30484;52.382;5.260;2023-06-22T05:48:16;102053.72;;;22.99;100.00
44765;BME280;30484;52.382;5.260;2023-06-22T05:50:45;102049.88;;;23.13;100.00
44765;BME280;30484;52.382;5.260;2023-06-22T05:53:14;102051.28;;;23.28;100.00
44765;BME280;30484;52.382;5.260;2023-06-22T05:55:43;102043.06;;;23.60;100.00
44765;BME280;30484;52.382;5.260;2023-06-22T05:58:12;102057.91;;;23.68;100.00
44765;BME280;30484;52.382;5.260;2023-06-22T06:00:45;102048.53;;;23.60;100.00
44765;BME280;30484;52.382;5.260;2023-06-22T06:03:19;102055.25;;;23.99;100.00
44765;BME280;30484;52.382;5.260;2023-06-22T06:05:48;102051.69;;;24.08;100.00
44765;BME280;30484;52.382;5.260;2023-06-22T06:08:17;102041.41;;;23.90;100.00
44765;BME280;30484;52.382;5.260;2023-06-22T06:10:46;102051.63;;;24.29;100.00
44765;BME280;30484;52.382;5.260;2023-06-22T06:13:15;102050.41;;;24.43;100.00
44765;BME280;30484;52.382;5.260;2023-06-22T06:15:44;102044.19;;;24.00;100.00
44765;BME280;30484;52.382;5.260;2023-06-22T06:18:13;102049.22;;;24.36;100.00
44765;BME280;30484;52.382;5.260;2023-06-22T06:20:44;102040.44;;;24.73;100.00
44765;BME280;30484;52.382;5.260;2023-06-22T06:23:12;102044.13;;;24.62;100.00
44765;BME280;30484;52.382;5.260;2023-06-22T06:25:41;102037.97;;;24.79;100.00
44765;BME280;30484;52.382;5.260;2023-06-22T06:28:09;102035.38;;;24.78;100.00
44765;BME280;30484;52.382;5.260;2023-06-22T06:30:38;102035.28;;;24.99;100.00
44765;BME280;30484;52.382;5.260;2023-06-22T06:33:08;102025.63;;;24.66;100.00
44765;BME280;30484;52.382;5.260;2023-06-22T06:35:37;102026.94;;;25.20;100.00
44765;BME280;30484;52.382;5.260;2023-06-22T06:38:07;102029.09;;;24.87;100.00
44765;BME280;30484;52.382;5.260;2023-06-22T06:40:35;102014.84;;;25.42;100.00
44765;BME280;30484;52.382;5.260;2023-06-22T06:43:04;102014.84;;;25.13;100.00
44765;BME280;30484;52.382;5.260;2023-06-22T06:45:32;102013.53;;;25.46;100.00
44765;BME280;30484;52.382;5.260;2023-06-22T06:48:02;102008.88;;;25.57;100.00
44765;BME280;30484;52.382;5.260;2023-06-22T06:50:31;102006.78;;;25.02;100.00
44765;BME280;30484;52.382;5.260;2023-06-22T06:53:00;102000.69;;;25.57;100.00
44765;BME280;30484;52.382;5.260;2023-06-22T06:55:30;102001.56;;;25.28;100.00
44765;BME280;30484;52.382;5.260;2023-06-22T06:58:01;102015.38;;;25.65;100.00
44765;BME280;30484;52.382;5.260;2023-06-22T07:00:33;102000.50;;;25.68;100.00
44765;BME280;30484;52.382;5.260;2023-06-22T07:03:03;102002.69;;;25.74;100.00
44765;BME280;30484;52.382;5.260;2023-06-22T07:05:32;101998.00;;;25.94;100.00
44765;BME280;30484;52.382;5.260;2023-06-22T07:08:00;102001.91;;;25.82;100.00
44765;BME280;30484;52.382;5.260;2023-06-22T07:10:30;102004.06;;;25.88;100.00
44765;BME280;30484;52.382;5.260;2023-06-22T07:12:59;101978.72;;;25.86;100.00
44765;BME280;30484;52.382;5.260;2023-06-22T07:15:28;101985.28;;;26.03;100.00
44765;BME280;30484;52.382;5.260;2023-06-22T07:17:57;101995.03;;;26.15;100.00
44765;BME280;30484;52.382;5.260;2023-06-22T07:20:25;101990.69;;;26.41;100.00
44765;BME280;30484;52.382;5.260;2023-06-22T07:22:55;101994.16;;;26.15;100.00
44765;BME280;30484;52.382;5.260;2023-06-22T07:25:23;101988.38;;;26.18;100.00
44765;BME280;30484;52.382;5.260;2023-06-22T07:28:04;101990.09;;;26.19;100.00
44765;BME280;30484;52.382;5.260;2023-06-22T07:30:47;101984.84;;;26.81;100.00
44765;BME280;30484;52.382;5.260;2023-06-22T07:33:16;101981.09;;;26.82;100.00
44765;BME280;30484;52.382;5.260;2023-06-22T07:35:46;101984.41;;;26.58;100.00
44765;BME280;30484;52.382;5.260;2023-06-22T07:38:17;101980.59;;;26.87;100.00
44765;BME280;30484;52.382;5.260;2023-06-22T07:40:47;101971.84;;;26.38;100.00
44765;BME280;30484;52.382;5.260;2023-06-22T07:43:20;101975.56;;;27.00;100.00
44765;BME280;30484;52.382;5.260;2023-06-22T07:45:51;101973.25;;;26.42;100.00
44765;BME280;30484;52.382;5.260;2023-06-22T07:48:21;101971.63;;;27.21;100.00
44765;BME280;30484;52.382;5.260;2023-06-22T07:50:50;101961.25;;;27.07;100.00
44765;BME280;30484;52.382;5.260;2023-06-22T07:53:20;101959.00;;;27.28;100.00
44765;BME280;30484;52.382;5.260;2023-06-22T07:55:49;101958.25;;;27.18;100.00
44765;BME280;30484;52.382;5.260;2023-06-22T07:58:19;101957.06;;;27.73;100.00
44765;BME280;30484;52.382;5.260;2023-06-22T08:00:48;101960.75;;;27.90;100.00
44765;BME280;30484;52.382;5.260;2023-06-22T08:03:17;101955.44;;;27.54;100.00
44765;BME280;30484;52.382;5.260;2023-06-22T08:05:45;101956.53;;;27.69;100.00
44765;BME280;30484;52.382;5.260;2023-06-22T08:08:14;101948.31;;;27.69;100.00
44765;BME280;30484;52.382;5.260;2023-06-22T08:10:43;101959.19;;;27.87;100.00
44765;BME280;30484;52.382;5.260;2023-06-22T08:13:12;101956.09;;;28.17;100.00
44765;BME280;30484;52.382;5.260;2023-06-22T08:15:41;101950.38;;;27.76;100.00
44765;BME280;30484;52.382;5.260;2023-06-22T08:18:10;101961.41;;;27.31;100.00
44765;BME280;30484;52.382;5.260;2023-06-22T08:20:38;101955.41;;;28.15;100.00
44765;BME280;30484;52.382;5.260;2023-06-22T08:23:07;101951.34;;;28.35;100.00
44765;BME280;30484;52.382;5.260;2023-06-22T08:25:36;101947.84;;;27.48;100.00
44765;BME280;30484;52.382;5.260;2023-06-22T08:28:04;101947.47;;;28.03;100.00
44765;BME280;30484;52.382;5.260;2023-06-22T08:30:34;101946.78;;;28.10;100.00
44765;BME280;30484;52.382;5.260;2023-06-22T08:33:04;101936.19;;;28.23;100.00
44765;BME280;30484;52.382;5.260;2023-06-22T08:35:32;101926.91;;;28.24;100.00
44765;BME280;30484;52.382;5.260;2023-06-22T08:38:01;101921.41;;;28.24;100.00
44765;BME280;30484;52.382;5.260;2023-06-22T08:40:29;101927.53;;;28.85;100.00
44765;BME280;30484;52.382;5.260;2023-06-22T08:42:58;101918.06;;;28.63;100.00
44765;BME280;30484;52.382;5.260;2023-06-22T08:45:26;101917.00;;;28.48;100.00
44765;BME280;30484;52.382;5.260;2023-06-22T08:47:57;101909.13;;;28.86;100.00
44765;BME280;30484;52.382;5.260;2023-06-22T08:50:27;101919.25;;;29.18;100.00
44765;BME280;30484;52.382;5.260;2023-06-22T08:52:56;101911.19;;;29.25;100.00
44765;BME280;30484;52.382;5.260;2023-06-22T08:55:25;101916.50;;;28.69;100.00
44765;BME280;30484;52.382;5.260;2023-06-22T08:57:54;101918.06;;;29.37;100.00
44765;BME280;30484;52.382;5.260;2023-06-22T09:00:22;101914.84;;;28.76;100.00
44765;BME280;30484;52.382;5.260;2023-06-22T09:02:51;101906.91;;;28.89;100.00
44765;BME280;30484;52.382;5.260;2023-06-22T09:05:20;101904.22;;;29.62;100.00
44765;BME280;30484;52.382;5.260;2023-06-22T09:07:50;101895.50;;;29.42;100.00
44765;BME280;30484;52.382;5.260;2023-06-22T09:10:18;101895.69;;;29.16;100.00
44765;BME280;30484;52.382;5.260;2023-06-22T09:12:47;101898.25;;;29.90;100.00
44765;BME280;30484;52.382;5.260;2023-06-22T09:15:15;101892.06;;;29.40;100.00
44765;BME280;30484;52.382;5.260;2023-06-22T09:17:45;101886.38;;;29.89;100.00
44765;BME280;30484;52.382;5.260;2023-06-22T09:20:14;101886.34;;;29.98;100.00
44765;BME280;30484;52.382;5.260;2023-06-22T09:22:43;101892.81;;;30.44;100.00
44765;BME280;30484;52.382;5.260;2023-06-22T09:25:13;101897.09;;;30.85;100.00
44765;BME280;30484;52.382;5.260;2023-06-22T09:27:41;101883.50;;;30.84;100.00
44765;BME280;30484;52.382;5.260;2023-06-22T09:30:10;101885.59;;;31.20;100.00
44765;BME280;30484;52.382;5.260;2023-06-22T09:32:39;101877.41;;;31.26;100.00
44765;BME280;30484;52.382;5.260;2023-06-22T09:35:08;101867.41;;;30.72;100.00
44765;BME280;30484;52.382;5.260;2023-06-22T09:37:41;101875.22;;;31.37;100.00
44765;BME280;30484;52.382;5.260;2023-06-22T09:40:11;101872.75;;;31.42;100.00
44765;BME280;30484;52.382;5.260;2023-06-22T09:42:42;101884.56;;;31.80;100.00
44765;BME280;30484;52.382;5.260;2023-06-22T09:45:10;101887.69;;;31.03;100.00
44765;BME280;30484;52.382;5.260;2023-06-22T09:47:39;101887.59;;;31.26;100.00
44765;BME280;30484;52.382;5.260;2023-06-22T09:50:09;101885.97;;;31.76;100.00
44765;BME280;30484;52.382;5.260;2023-06-22T09:52:37;101889.59;;;31.92;100.00
44765;BME280;30484;52.382;5.260;2023-06-22T09:55:09;101885.38;;;31.96;100.00
44765;BME280;30484;52.382;5.260;2023-06-22T09:57:37;101890.38;;;31.86;100.00
44765;BME280;30484;52.382;5.260;2023-06-22T10:00:09;101884.28;;;32.27;100.00
44765;BME280;30484;52.382;5.260;2023-06-22T10:02:41;101887.13;;;31.82;100.00
44765;BME280;30484;52.382;5.260;2023-06-22T10:05:09;101878.91;;;32.25;100.00
44765;BME280;30484;52.382;5.260;2023-06-22T10:07:38;101877.03;;;32.11;100.00
44765;BME280;30484;52.382;5.260;2023-06-22T10:10:10;101872.53;;;31.88;100.00
44765;BME280;30484;52.382;5.260;2023-06-22T10:12:42;101867.16;;;32.60;100.00
44765;BME280;30484;52.382;5.260;2023-06-22T10:15:13;101863.81;;;32.21;100.00
44765;BME280;30484;52.382;5.260;2023-06-22T10:17:42;101869.41;;;31.76;100.00
44765;BME280;30484;52.382;5.260;2023-06-22T10:20:11;101867.16;;;32.01;100.00
44765;BME280;30484;52.382;5.260;2023-06-22T10:22:41;101851.94;;;32.27;100.00
44765;BME280;30484;52.382;5.260;2023-06-22T10:25:11;101873.88;;;32.29;100.00
44765;BME280;30484;52.382;5.260;2023-06-22T10:27:40;101858.41;;;32.13;100.00
44765;BME280;30484;52.382;5.260;2023-06-22T10:30:10;101863.13;;;31.38;100.00
44765;BME280;30484;52.382;5.260;2023-06-22T10:32:42;101851.78;;;31.77;100.00
44765;BME280;30484;52.382;5.260;2023-06-22T10:35:11;101850.56;;;31.20;100.00
44765;BME280;30484;52.382;5.260;2023-06-22T10:37:43;101847.16;;;31.33;100.00
44765;BME280;30484;52.382;5.260;2023-06-22T10:40:13;101854.59;;;31.99;100.00
44765;BME280;30484;52.382;5.260;2023-06-22T10:42:43;101855.97;;;31.73;100.00
44765;BME280;30484;52.382;5.260;2023-06-22T10:45:11;101857.22;;;31.56;100.00
44765;BME280;30484;52.382;5.260;2023-06-22T10:47:42;101859.78;;;31.12;100.00
44765;BME280;30484;52.382;5.260;2023-06-22T10:50:10;101866.25;;;31.20;100.00
44765;BME280;30484;52.382;5.260;2023-06-22T10:52:41;101862.06;;;31.24;100.00
44765;BME280;30484;52.382;5.260;2023-06-22T10:55:10;101873.25;;;31.60;100.00
44765;BME280;30484;52.382;5.260;2023-06-22T10:57:39;101864.66;;;31.25;100.00
44765;BME280;30484;52.382;5.260;2023-06-22T11:00:12;101871.72;;;30.52;100.00
44765;BME280;30484;52.382;5.260;2023-06-22T11:02:42;101879.72;;;30.85;100.00
44765;BME280;30484;52.382;5.260;2023-06-22T11:05:12;101872.78;;;30.89;100.00
44765;BME280;30484;52.382;5.260;2023-06-22T11:07:42;101863.97;;;30.47;100.00
44765;BME280;30484;52.382;5.260;2023-06-22T11:10:16;101863.59;;;30.73;100.00
44765;BME280;30484;52.382;5.260;2023-06-22T11:12:45;101867.41;;;30.26;100.00
44765;BME280;30484;52.382;5.260;2023-06-22T11:15:14;101880.19;;;30.88;100.00
44765;BME280;30484;52.382;5.260;2023-06-22T11:17:44;101863.72;;;30.57;100.00
44765;BME280;30484;52.382;5.260;2023-06-22T11:20:14;101867.06;;;30.52;100.00
44765;BME280;30484;52.382;5.260;2023-06-22T11:22:43;101870.44;;;31.01;100.00
44765;BME280;30484;52.382;5.260;2023-06-22T11:25:13;101868.91;;;30.60;100.00
44765;BME280;30484;52.382;5.260;2023-06-22T11:27:42;101866.59;;;30.40;100.00
44765;BME280;30484;52.382;5.260;2023-06-22T11:30:11;101869.44;;;30.78;100.00
44765;BME280;30484;52.382;5.260;2023-06-22T11:32:45;101863.25;;;30.53;100.00
44765;BME280;30484;52.382;5.260;2023-06-22T11:35:15;101865.63;;;30.33;100.00
44765;BME280;30484;52.382;5.260;2023-06-22T11:37:47;101864.94;;;30.31;100.00
44765;BME280;30484;52.382;5.260;2023-06-22T11:40:16;101853.25;;;30.52;100.00
44765;BME280;30484;52.382;5.260;2023-06-22T11:42:47;101854.81;;;30.70;100.00
44765;BME280;30484;52.382;5.260;2023-06-22T11:45:16;101857.34;;;30.33;100.00
44765;BME280;30484;52.382;5.260;2023-06-22T11:47:47;101848.41;;;30.31;100.00
44765;BME280;30484;52.382;5.260;2023-06-22T11:50:16;101856.09;;;30.12;100.00
44765;BME280;30484;52.382;5.260;2023-06-22T11:52:46;101846.16;;;30.35;100.00
44765;BME280;30484;52.382;5.260;2023-06-22T11:55:15;101835.34;;;29.70;100.00
44765;BME280;30484;52.382;5.260;2023-06-22T11:57:54;101839.84;;;30.26;100.00
44765;BME280;30484;52.382;5.260;2023-06-22T12:00:23;101839.69;;;29.96;100.00
44765;BME280;30484;52.382;5.260;2023-06-22T12:02:57;101827.47;;;30.22;100.00
44765;BME280;30484;52.382;5.260;2023-06-22T12:05:28;101832.41;;;30.03;100.00
44765;BME280;30484;52.382;5.260;2023-06-22T12:07:57;101830.22;;;30.22;100.00
44765;BME280;30484;52.382;5.260;2023-06-22T12:10:27;101819.66;;;29.71;100.00
44765;BME280;30484;52.382;5.260;2023-06-22T12:12:56;101827.88;;;29.87;100.00
44765;BME280;30484;52.382;5.260;2023-06-22T12:15:27;101819.66;;;29.31;100.00
44765;BME280;30484;52.382;5.260;2023-06-22T12:17:57;101811.75;;;29.28;100.00
44765;BME280;30484;52.382;5.260;2023-06-22T12:20:26;101807.44;;;29.73;100.00
44765;BME280;30484;52.382;5.260;2023-06-22T12:22:56;101808.31;;;29.97;100.00
44765;BME280;30484;52.382;5.260;2023-06-22T12:25:25;101801.63;;;29.60;100.00
44765;BME280;30484;52.382;5.260;2023-06-22T12:27:54;101803.75;;;29.89;100.00
44765;BME280;30484;52.382;5.260;2023-06-22T12:30:22;101790.25;;;29.32;100.00
44765;BME280;30484;52.382;5.260;2023-06-22T12:32:51;101798.25;;;28.93;100.00
44765;BME280;30484;52.382;5.260;2023-06-22T12:35:24;101800.81;;;29.03;100.00
44765;BME280;30484;52.382;5.260;2023-06-22T12:37:53;101804.09;;;28.90;100.00
44765;BME280;30484;52.382;5.260;2023-06-22T12:40:22;101796.06;;;28.48;100.00
44765;BME280;30484;52.382;5.260;2023-06-22T12:42:51;101800.47;;;28.98;100.00
44765;BME280;30484;52.382;5.260;2023-06-22T12:45:19;101792.47;;;28.72;100.00
44765;BME280;30484;52.382;5.260;2023-06-22T12:47:48;101788.66;;;28.48;100.00
44765;BME280;30484;52.382;5.260;2023-06-22T12:50:18;101787.06;;;27.88;100.00
44765;BME280;30484;52.382;5.260;2023-06-22T12:52:48;101786.59;;;28.26;100.00
44765;BME280;30484;52.382;5.260;2023-06-22T12:55:17;101789.34;;;28.09;100.00
44765;BME280;30484;52.382;5.260;2023-06-22T12:57:46;101777.16;;;28.36;100.00